Time;durP1;ratioP1;P1;durP2;ratioP2;P2;SDS_P1;SDS_P2;PMS_P1;PMS_P2;Temp;Humidity;BMP_temperature;BMP_pressure;BME280_temperature;BME280_humidity;BME280_pressure;Samples;Min_cycle;Max_cycle;Signal;HPM_P1;HPM_P2
2023/12/16 00:00:10;;;;;;;11.85;2.78;;;10.60;49.30;;;;;;5051582;28;20961;-53
2023/12/16 00:02:36;;;;;;;1.73;1.17;;;10.60;49.20;;;;;;5051670;28;20535;-52
2023/12/16 00:05:02;;;;;;;2.15;1.95;;;10.60;49.10;;;;;;5051658;28;20230;-47
2023/12/16 00:07:28;;;;;;;3.88;2.97;;;10.60;49.10;;;;;;5051357;28;20177;-47
2023/12/16 00:09:54;;;;;;;1.30;0.77;;;10.60;49.10;;;;;;5051621;28;20248;-53
2023/12/16 00:12:20;;;;;;;3.20;2.30;;;10.60;49.20;;;;;;5051574;28;20183;-49
2023/12/16 00:14:45;;;;;;;5.10;1.53;;;10.60;49.10;;;;;;5051848;28;20181;-53
2023/12/16 00:17:12;;;;;;;3.00;2.00;;;10.50;49.30;;;;;;5054425;28;20946;-54
2023/12/16 00:19:38;;;;;;;1.85;1.52;;;10.50;49.30;;;;;;5055416;28;20463;-45
2023/12/16 00:22:03;;;;;;;3.53;3.03;;;10.50;49.40;;;;;;5055393;28;20184;-49
2023/12/16 00:24:29;;;;;;;4.50;1.90;;;10.50;49.50;;;;;;5055452;28;20407;-52
2023/12/16 00:26:55;;;;;;;2.22;1.30;;;10.50;49.40;;;;;;5055193;28;20894;-51
2023/12/16 00:29:21;;;;;;;3.50;2.33;;;10.60;49.40;;;;;;5037471;28;20679;-47
2023/12/16 00:31:47;;;;;;;1.53;1.13;;;10.60;49.40;;;;;;5055362;28;20511;-51
2023/12/16 00:34:13;;;;;;;3.53;2.05;;;10.70;49.30;;;;;;5055286;28;20412;-48
2023/12/16 00:36:41;;;;;;;5.00;1.83;;;10.80;49.10;;;;;;5055072;28;20284;-50
2023/12/16 00:39:07;;;;;;;3.05;1.52;;;10.80;48.90;;;;;;5054761;28;20826;-51
2023/12/16 00:41:33;;;;;;;3.00;2.50;;;10.90;48.90;;;;;;5055086;28;20690;-52
2023/12/16 00:43:59;;;;;;;4.40;3.95;;;10.80;48.80;;;;;;5055283;28;20502;-49
2023/12/16 00:46:25;;;;;;;3.30;2.07;;;10.80;48.80;;;;;;5055119;28;20176;-47
2023/12/16 00:48:51;;;;;;;3.47;1.90;;;10.80;48.80;;;;;;5054919;28;20201;-53
2023/12/16 00:51:19;;;;;;;2.07;1.93;;;10.90;48.90;;;;;;5054940;28;20904;-55
2023/12/16 00:53:45;;;;;;;4.95;2.10;;;10.80;48.70;;;;;;5054848;28;20426;-48
2023/12/16 00:56:11;;;;;;;3.33;2.05;;;10.90;48.40;;;;;;5054817;28;20907;-47
2023/12/16 00:58:36;;;;;;;2.75;1.77;;;10.80;48.60;;;;;;5054821;28;20686;-54
2023/12/16 01:01:02;;;;;;;2.50;1.67;;;10.80;48.80;;;;;;5054666;28;20605;-47
2023/12/16 01:03:28;;;;;;;3.40;2.88;;;10.90;48.90;;;;;;5054678;28;20485;-51
2023/12/16 01:05:54;;;;;;;7.90;2.93;;;10.90;48.70;;;;;;5054765;28;20542;-50
2023/12/16 01:08:20;;;;;;;3.00;1.77;;;10.80;48.50;;;;;;5054215;28;20194;-49
2023/12/16 01:10:46;;;;;;;2.70;2.50;;;10.80;48.90;;;;;;5054509;28;20443;-55
2023/12/16 01:13:12;;;;;;;6.77;3.40;;;10.60;49.10;;;;;;5054474;28;20411;-55
2023/12/16 01:15:38;;;;;;;4.90;3.43;;;10.60;49.20;;;;;;5054659;28;20826;-47
2023/12/16 01:18:04;;;;;;;6.97;2.20;;;10.60;49.50;;;;;;5054210;28;20453;-48
2023/12/16 01:20:30;;;;;;;3.55;2.08;;;10.50;49.70;;;;;;5054323;28;20197;-53
2023/12/16 01:22:55;;;;;;;3.75;2.03;;;10.50;49.90;;;;;;5054163;28;20227;-54
2023/12/16 01:25:21;;;;;;;6.87;2.27;;;10.50;50.10;;;;;;5054335;28;20304;-48
2023/12/16 01:27:48;;;;;;;2.50;1.77;;;10.50;50.10;;;;;;5053671;28;20655;-53
2023/12/16 01:30:14;;;;;;;5.38;2.70;;;10.60;50.00;;;;;;5054192;28;20411;-47
2023/12/16 01:32:40;;;;;;;3.63;2.43;;;10.50;49.90;;;;;;5054546;28;20298;-51
2023/12/16 01:35:06;;;;;;;5.05;1.95;;;10.60;49.90;;;;;;5054000;28;20769;-51
2023/12/16 01:37:32;;;;;;;2.75;0.80;;;10.60;49.70;;;;;;5053652;28;20196;-49
2023/12/16 01:40:00;;;;;;;2.33;1.70;;;10.70;49.70;;;;;;5054245;28;20232;-46
2023/12/16 01:42:26;;;;;;;4.15;2.45;;;10.60;49.50;;;;;;5053873;28;20942;-52
2023/12/16 01:44:52;;;;;;;4.95;2.45;;;10.70;49.50;;;;;;5053912;28;20183;-48
2023/12/16 01:47:18;;;;;;;1.77;1.03;;;10.60;49.40;;;;;;5053825;28;20169;-47
2023/12/16 01:49:44;;;;;;;7.87;1.33;;;10.70;49.50;;;;;;5053850;28;20675;-52
2023/12/16 01:52:11;;;;;;;2.45;1.55;;;10.70;49.40;;;;;;5053702;28;20940;-48
2023/12/16 01:54:38;;;;;;;4.22;1.48;;;10.60;49.30;;;;;;5053913;28;20593;-49
2023/12/16 01:57:05;;;;;;;4.55;1.95;;;10.70;49.30;;;;;;5053596;28;20169;-52
2023/12/16 01:59:31;;;;;;;3.97;3.58;;;10.70;49.30;;;;;;5053606;28;20209;-50
2023/12/16 02:01:58;;;;;;;2.87;2.67;;;10.50;49.50;;;;;;5053541;28;20176;-49
2023/12/16 02:04:24;;;;;;;1.48;0.88;;;10.60;49.40;;;;;;5053518;28;20495;-54
2023/12/16 02:06:50;;;;;;;3.20;2.25;;;10.70;49.30;;;;;;5053423;28;20200;-49
2023/12/16 02:09:18;;;;;;;2.70;2.40;;;10.70;49.30;;;;;;5053615;28;20221;-50
2023/12/16 02:11:44;;;;;;;7.63;1.63;;;10.80;49.20;;;;;;5053406;28;20463;-50
2023/12/16 02:14:10;;;;;;;2.77;2.50;;;10.80;48.90;;;;;;5053336;28;20201;-47
2023/12/16 02:16:36;;;;;;;1.30;0.97;;;10.70;48.90;;;;;;5053220;28;20403;-53
2023/12/16 02:19:09;;;;;;;2.00;1.80;;;10.80;48.90;;;;;;5053120;28;20833;-48
2023/12/16 02:21:35;;;;;;;1.80;1.42;;;10.90;49.00;;;;;;5053169;28;20185;-48
2023/12/16 02:24:01;;;;;;;3.00;2.13;;;10.90;48.90;;;;;;5053330;28;20172;-50
2023/12/16 02:26:27;;;;;;;2.67;1.47;;;10.90;48.70;;;;;;5053125;28;20177;-55
2023/12/16 02:28:53;;;;;;;2.97;0.60;;;10.90;49.30;;;;;;5053058;28;20573;-50
2023/12/16 02:31:18;;;;;;;3.15;1.50;;;10.90;48.50;;;;;;5053102;28;20952;-50
2023/12/16 02:33:45;;;;;;;13.30;3.07;;;10.90;48.70;;;;;;5052978;28;20643;-51
2023/12/16 02:36:11;;;;;;;4.40;2.75;;;10.90;48.70;;;;;;5052888;28;20971;-55
2023/12/16 02:38:37;;;;;;;3.13;2.03;;;10.90;48.80;;;;;;5052716;28;20267;-50
2023/12/16 02:41:03;;;;;;;2.40;1.30;;;10.90;48.50;;;;;;5051891;28;20682;-52
2023/12/16 02:43:29;;;;;;;1.27;1.00;;;10.90;48.60;;;;;;5052821;28;20411;-47
2023/12/16 02:45:55;;;;;;;3.77;2.47;;;10.90;48.20;;;;;;5052960;28;20196;-52
2023/12/16 02:48:20;;;;;;;3.13;2.63;;;10.80;48.20;;;;;;5052559;28;21000;-51
2023/12/16 02:50:46;;;;;;;1.27;1.00;;;10.70;48.10;;;;;;5052590;28;20403;-48
2023/12/16 02:53:12;;;;;;;2.07;1.47;;;10.70;48.30;;;;;;5052760;28;20404;-54
2023/12/16 02:55:38;;;;;;;3.23;1.43;;;10.70;48.30;;;;;;5052731;28;20169;-48
2023/12/16 02:58:04;;;;;;;2.93;1.07;;;10.70;48.30;;;;;;5052342;28;20428;-49
2023/12/16 03:00:30;;;;;;;2.23;1.70;;;10.80;48.30;;;;;;5052475;28;20859;-52
2023/12/16 03:02:56;;;;;;;1.70;1.17;;;10.90;48.30;;;;;;5052415;28;20836;-49
2023/12/16 03:05:21;;;;;;;1.00;0.70;;;10.90;47.80;;;;;;5052309;28;20969;-53
2023/12/16 03:07:47;;;;;;;1.70;1.60;;;10.90;48.60;;;;;;5052170;28;20201;-51
2023/12/16 03:10:13;;;;;;;2.85;0.98;;;10.90;47.90;;;;;;5052537;28;20404;-48
2023/12/16 03:12:39;;;;;;;3.80;2.17;;;10.90;47.70;;;;;;5052254;28;20639;-53
2023/12/16 03:15:07;;;;;;;3.60;1.43;;;10.90;47.90;;;;;;5052344;28;20416;-48
2023/12/16 03:17:33;;;;;;;2.35;1.20;;;10.90;47.70;;;;;;5051857;28;20418;-49
2023/12/16 03:19:59;;;;;;;2.23;1.23;;;11.00;47.60;;;;;;5052415;28;20205;-54
2023/12/16 03:22:25;;;;;;;5.63;1.40;;;10.90;47.10;;;;;;5052252;28;20430;-48
2023/12/16 03:24:51;;;;;;;1.63;1.25;;;10.90;47.40;;;;;;5052148;28;20670;-54
2023/12/16 03:27:17;;;;;;;1.77;0.93;;;10.90;47.50;;;;;;5052033;28;20176;-53
2023/12/16 03:29:43;;;;;;;2.97;0.87;;;10.90;47.50;;;;;;5051945;28;20435;-46
2023/12/16 03:32:08;;;;;;;8.13;1.47;;;11.00;47.40;;;;;;5051899;28;20490;-51
2023/12/16 03:34:34;;;;;;;1.63;1.23;;;11.00;47.20;;;;;;5052207;28;20758;-48
2023/12/16 03:37:00;;;;;;;2.67;2.42;;;10.90;46.80;;;;;;5051794;28;20770;-50
2023/12/16 03:39:26;;;;;;;14.13;2.40;;;10.90;47.10;;;;;;5051712;28;20217;-57
2023/12/16 03:41:52;;;;;;;3.75;1.20;;;10.90;46.50;;;;;;5051925;28;20407;-48
2023/12/16 03:44:18;;;;;;;2.37;0.73;;;10.90;46.40;;;;;;5051810;28;20215;-48
2023/12/16 03:46:43;;;;;;;1.75;1.17;;;10.80;45.30;;;;;;5051687;28;20193;-53
2023/12/16 03:49:09;;;;;;;2.10;1.90;;;10.70;46.20;;;;;;5051786;28;20267;-46
2023/12/16 03:51:35;;;;;;;2.35;1.73;;;10.80;46.10;;;;;;5051542;28;20403;-53
2023/12/16 03:54:01;;;;;;;2.53;0.70;;;10.80;46.10;;;;;;5051791;28;20597;-52
2023/12/16 03:56:27;;;;;;;3.50;1.33;;;10.80;45.50;;;;;;5033890;28;20786;-47
2023/12/16 03:58:53;;;;;;;1.58;1.25;;;10.80;45.80;;;;;;5051528;28;20933;-50
2023/12/16 04:01:19;;;;;;;2.05;1.05;;;10.70;45.30;;;;;;5051587;28;20239;-51
2023/12/16 04:03:45;;;;;;;2.40;0.97;;;10.80;45.80;;;;;;5051876;28;20175;-49
2023/12/16 04:06:14;;;;;;;2.40;1.00;;;10.80;45.60;;;;;;5051583;28;20404;-50
2023/12/16 04:08:40;;;;;;;4.15;1.13;;;10.80;45.40;;;;;;5051543;28;20439;-51
2023/12/16 04:11:07;;;;;;;1.85;0.70;;;10.80;44.60;;;;;;5051704;28;20177;-50
2023/12/16 04:13:36;;;;;;;1.25;0.65;;;10.70;44.80;;;;;;5051567;28;20165;-47
2023/12/16 04:16:03;;;;;;;2.15;1.15;;;10.60;44.10;;;;;;5051480;28;20181;-53
2023/12/16 04:18:30;;;;;;;1.63;0.95;;;10.50;44.80;;;;;;5051296;28;20563;-49
2023/12/16 04:20:56;;;;;;;4.20;2.13;;;10.50;45.10;;;;;;5051571;28;20265;-53
2023/12/16 04:23:22;;;;;;;0.90;0.50;;;10.50;45.20;;;;;;5051530;28;20750;-47
2023/12/16 04:25:47;;;;;;;1.00;0.57;;;10.50;45.40;;;;;;5051477;28;20414;-48
2023/12/16 04:28:13;;;;;;;1.23;0.50;;;10.60;45.60;;;;;;5051335;28;20181;-54
2023/12/16 04:30:39;;;;;;;1.77;1.27;;;10.60;45.60;;;;;;5051443;28;20400;-50
2023/12/16 04:33:05;;;;;;;0.90;0.50;;;10.60;44.80;;;;;;5051374;28;20454;-51
2023/12/16 04:35:31;;;;;;;3.37;1.90;;;10.60;45.10;;;;;;5051419;28;20400;-55
2023/12/16 04:37:57;;;;;;;0.90;0.47;;;10.60;45.20;;;;;;5051077;28;20444;-48
2023/12/16 04:40:23;;;;;;;1.27;1.00;;;10.70;45.30;;;;;;5051257;28;20284;-54
2023/12/16 04:42:49;;;;;;;1.90;1.73;;;10.70;45.20;;;;;;5051332;28;20271;-51
2023/12/16 04:45:15;;;;;;;3.08;1.65;;;10.70;45.00;;;;;;5051267;28;20454;-49
2023/12/16 04:47:41;;;;;;;1.57;0.90;;;10.70;44.70;;;;;;5051022;28;20170;-50
2023/12/16 04:50:07;;;;;;;2.38;2.15;;;10.70;45.20;;;;;;5051205;28;20184;-52
2023/12/16 04:52:33;;;;;;;1.70;1.60;;;10.70;45.00;;;;;;5051247;28;20185;-47
2023/12/16 04:54:58;;;;;;;1.33;0.60;;;10.70;45.00;;;;;;5051232;28;20177;-50
2023/12/16 04:57:24;;;;;;;4.03;0.87;;;10.80;45.00;;;;;;5051091;28;20173;-53
2023/12/16 04:59:50;;;;;;;1.63;0.40;;;10.70;43.50;;;;;;5051074;28;20205;-49
2023/12/16 05:02:16;;;;;;;1.40;1.17;;;10.70;44.70;;;;;;5051077;28;20805;-52
2023/12/16 05:04:42;;;;;;;1.20;1.07;;;10.70;44.90;;;;;;5054425;28;20200;-47
2023/12/16 05:07:07;;;;;;;2.90;1.70;;;10.70;44.50;;;;;;5054431;28;20411;-52
2023/12/16 05:09:33;;;;;;;1.20;0.93;;;10.70;44.00;;;;;;5054630;28;20427;-55
2023/12/16 05:11:59;;;;;;;2.30;1.07;;;10.70;43.60;;;;;;5054561;28;20451;-48
2023/12/16 05:14:25;;;;;;;1.90;1.25;;;10.50;44.30;;;;;;5054456;28;20432;-50
2023/12/16 05:16:51;;;;;;;1.00;0.50;;;10.50;43.90;;;;;;5054502;28;20659;-52
2023/12/16 05:19:17;;;;;;;1.27;0.82;;;10.40;44.20;;;;;;5054340;28;20466;-48
2023/12/16 05:21:43;;;;;;;1.40;1.20;;;10.50;44.80;;;;;;5054494;28;20203;-51
2023/12/16 05:24:09;;;;;;;0.90;0.57;;;10.50;44.50;;;;;;5054373;28;20886;-48
2023/12/16 05:26:34;;;;;;;2.27;1.77;;;10.50;44.10;;;;;;5054183;28;20439;-47
2023/12/16 05:29:00;;;;;;;2.57;1.57;;;10.50;44.20;;;;;;5054144;28;20439;-54
2023/12/16 05:31:26;;;;;;;3.23;2.43;;;10.60;44.40;;;;;;5054365;28;20412;-55
2023/12/16 05:33:52;;;;;;;3.00;1.73;;;10.60;44.40;;;;;;5054139;28;20408;-50
2023/12/16 05:36:18;;;;;;;1.37;0.60;;;10.70;44.50;;;;;;5054219;28;20487;-51
2023/12/16 05:38:44;;;;;;;2.80;1.77;;;10.70;44.10;;;;;;5053725;28;20448;-50
2023/12/16 05:41:13;;;;;;;2.60;0.70;;;10.70;44.10;;;;;;5053921;28;20255;-48
2023/12/16 05:43:39;;;;;;;1.13;0.70;;;10.70;44.10;;;;;;5053866;28;20410;-48
2023/12/16 05:46:04;;;;;;;1.03;0.47;;;10.60;43.60;;;;;;5054142;28;20170;-49
2023/12/16 05:48:31;;;;;;;4.60;1.03;;;10.60;43.80;;;;;;5053692;28;20177;-51
2023/12/16 05:50:57;;;;;;;2.65;0.85;;;10.60;43.80;;;;;;5053802;28;20913;-48
2023/12/16 05:53:23;;;;;;;1.38;0.38;;;10.60;43.90;;;;;;5053840;28;20543;-48
2023/12/16 05:55:49;;;;;;;2.10;1.43;;;10.50;43.80;;;;;;5053759;28;20176;-53
2023/12/16 05:58:15;;;;;;;2.55;1.27;;;10.50;44.70;;;;;;5053433;28;20196;-50
2023/12/16 06:00:41;;;;;;;1.50;1.25;;;10.60;43.90;;;;;;5053732;28;20208;-48
2023/12/16 06:03:07;;;;;;;2.00;1.37;;;10.50;43.50;;;;;;5053774;28;20547;-56
2023/12/16 06:05:32;;;;;;;37.47;1.73;;;10.50;43.60;;;;;;5053722;28;20173;-56
2023/12/16 06:07:58;;;;;;;1.40;1.17;;;10.40;43.70;;;;;;5053451;28;20538;-50
2023/12/16 06:10:24;;;;;;;1.20;1.10;;;10.40;43.90;;;;;;5053354;28;20173;-50
2023/12/16 06:12:50;;;;;;;2.30;1.65;;;10.30;43.90;;;;;;5053487;28;20499;-49
2023/12/16 06:15:16;;;;;;;1.93;1.43;;;10.20;44.30;;;;;;5053300;28;20252;-48
2023/12/16 06:17:42;;;;;;;4.30;2.00;;;10.20;44.00;;;;;;5053304;28;20173;-48
2023/12/16 06:20:08;;;;;;;0.93;0.70;;;10.20;44.40;;;;;;5053335;28;20530;-55
2023/12/16 06:22:33;;;;;;;0.95;0.63;;;10.20;44.20;;;;;;5053263;28;20410;-47
2023/12/16 06:24:59;;;;;;;2.07;1.50;;;10.20;44.60;;;;;;5053201;28;20169;-48
2023/12/16 06:27:25;;;;;;;1.37;1.27;;;10.30;44.40;;;;;;5053007;28;20440;-54
2023/12/16 06:29:51;;;;;;;1.47;1.30;;;10.40;44.50;;;;;;5053052;28;20424;-49
2023/12/16 06:32:17;;;;;;;3.97;1.13;;;10.50;44.40;;;;;;5052993;28;20412;-50
2023/12/16 06:34:43;;;;;;;8.10;1.40;;;10.50;44.10;;;;;;5053126;28;20411;-55
2023/12/16 06:37:08;;;;;;;1.00;0.73;;;10.50;44.30;;;;;;5052827;28;20234;-47
2023/12/16 06:39:35;;;;;;;3.17;0.97;;;10.60;44.30;;;;;;5052724;28;20209;-50
2023/12/16 06:42:00;;;;;;;2.10;1.17;;;10.60;44.20;;;;;;5052847;28;20407;-53
2023/12/16 06:44:26;;;;;;;1.20;0.90;;;10.60;44.00;;;;;;5052820;28;20177;-49
2023/12/16 06:46:52;;;;;;;3.43;1.13;;;10.60;43.90;;;;;;5052669;28;20408;-47
2023/12/16 06:49:18;;;;;;;1.07;0.60;;;10.70;44.20;;;;;;5052705;28;20193;-52
2023/12/16 06:51:44;;;;;;;2.90;0.82;;;10.70;44.10;;;;;;5052635;28;20423;-52
2023/12/16 06:54:10;;;;;;;1.10;0.77;;;10.70;44.00;;;;;;5052526;28;20188;-50
2023/12/16 06:56:36;;;;;;;1.27;1.05;;;10.70;44.10;;;;;;5052363;28;20181;-48
2023/12/16 06:59:01;;;;;;;2.63;1.13;;;10.70;43.80;;;;;;5052617;28;20197;-55
2023/12/16 07:01:27;;;;;;;1.87;0.63;;;10.70;43.60;;;;;;5052420;28;20899;-55
2023/12/16 07:03:53;;;;;;;2.80;2.10;;;10.70;43.70;;;;;;5052588;28;20450;-51
2023/12/16 07:06:20;;;;;;;1.30;0.83;;;10.70;43.90;;;;;;5052482;28;20414;-50
2023/12/16 07:08:46;;;;;;;2.65;1.80;;;10.70;44.20;;;;;;5052078;28;20427;-54
2023/12/16 07:11:15;;;;;;;1.77;1.67;;;10.70;44.10;;;;;;5052262;28;20181;-55
2023/12/16 07:13:41;;;;;;;1.95;1.17;;;10.60;44.10;;;;;;5052520;28;20197;-51
2023/12/16 07:16:07;;;;;;;1.30;0.95;;;10.60;44.50;;;;;;5052222;28;20646;-49
2023/12/16 07:18:33;;;;;;;1.55;1.05;;;10.60;44.60;;;;;;5052142;28;20197;-50
2023/12/16 07:20:59;;;;;;;1.77;0.87;;;10.60;44.90;;;;;;5052117;28;20641;-55
2023/12/16 07:23:28;;;;;;;1.87;0.83;;;10.50;45.00;;;;;;5052045;28;20200;-53
2023/12/16 07:25:54;;;;;;;1.27;0.90;;;10.60;45.20;;;;;;5051630;28;20403;-49
2023/12/16 07:28:21;;;;;;;1.50;0.83;;;10.60;45.20;;;;;;5052006;28;20194;-51
2023/12/16 07:30:47;;;;;;;1.15;0.73;;;10.60;45.00;;;;;;5052149;28;20180;-50
2023/12/16 07:33:13;;;;;;;1.27;0.73;;;10.70;45.30;;;;;;5052153;28;20597;-50
2023/12/16 07:35:39;;;;;;;1.30;0.63;;;10.60;45.50;;;;;;5051938;28;20408;-47
2023/12/16 07:38:06;;;;;;;1.88;1.25;;;10.70;45.40;;;;;;5051581;28;20953;-49
2023/12/16 07:40:33;;;;;;;2.50;1.05;;;10.70;45.40;;;;;;5051845;28;20209;-51
2023/12/16 07:42:59;;;;;;;1.20;0.60;;;10.70;45.40;;;;;;5051870;28;20169;-50
2023/12/16 07:45:25;;;;;;;5.13;1.63;;;10.70;45.30;;;;;;5051921;28;20267;-53
2023/12/16 07:47:51;;;;;;;2.00;1.00;;;10.70;45.10;;;;;;5051732;28;20493;-54
2023/12/16 07:50:19;;;;;;;2.23;1.10;;;10.70;45.40;;;;;;5051849;28;20471;-48
2023/12/16 07:52:46;;;;;;;1.23;0.88;;;10.70;45.30;;;;;;5051689;28;20965;-54
2023/12/16 07:55:13;;;;;;;1.58;1.08;;;10.70;45.30;;;;;;5051802;28;20189;-56
2023/12/16 07:57:39;;;;;;;2.15;1.25;;;10.70;45.50;;;;;;5051752;28;20215;-48
2023/12/16 08:00:05;;;;;;;1.93;1.10;;;10.70;45.50;;;;;;5051605;28;20196;-54
2023/12/16 08:02:31;;;;;;;3.67;1.35;;;10.70;45.50;;;;;;5051668;28;20443;-47
2023/12/16 08:04:57;;;;;;;5.33;2.77;;;10.70;45.00;;;;;;5051657;28;20193;-56
2023/12/16 08:07:23;;;;;;;1.10;0.70;;;10.70;45.40;;;;;;5051653;28;20430;-48
2023/12/16 08:09:49;;;;;;;2.75;1.38;;;10.70;45.40;;;;;;5051598;28;20671;-50
2023/12/16 08:12:15;;;;;;;1.70;1.60;;;10.80;45.30;;;;;;5051821;28;20554;-52
2023/12/16 08:14:41;;;;;;;0.98;0.60;;;10.90;45.40;;;;;;5051551;28;20174;-47
2023/12/16 08:17:07;;;;;;;1.30;1.20;;;10.90;45.30;;;;;;5051512;28;20168;-49
2023/12/16 08:19:33;;;;;;;1.20;1.10;;;10.90;44.90;;;;;;5051342;28;20462;-55
2023/12/16 08:22:02;;;;;;;19.45;1.33;;;11.00;45.00;;;;;;5051724;28;20284;-48
2023/12/16 08:24:29;;;;;;;1.65;1.15;;;11.00;45.00;;;;;;5051558;28;20169;-50
2023/12/16 08:26:55;;;;;;;1.70;1.38;;;10.90;44.50;;;;;;5051456;28;20543;-54
2023/12/16 08:29:21;;;;;;;20.90;1.20;;;10.80;44.60;;;;;;5051477;28;20197;-52
2023/12/16 08:31:47;;;;;;;2.13;1.70;;;10.90;45.40;;;;;;5051421;28;20181;-51
2023/12/16 08:34:12;;;;;;;2.30;1.20;;;10.90;44.80;;;;;;5051307;28;20414;-54
2023/12/16 08:36:39;;;;;;;3.58;2.80;;;11.00;44.60;;;;;;5051441;28;20436;-51
2023/12/16 08:39:05;;;;;;;1.58;1.10;;;11.00;44.80;;;;;;5053677;28;20224;-49
2023/12/16 08:41:31;;;;;;;1.30;1.20;;;11.00;44.40;;;;;;5055116;28;20177;-54
2023/12/16 08:43:57;;;;;;;3.70;1.70;;;11.00;44.10;;;;;;5055060;28;20257;-49
2023/12/16 08:46:25;;;;;;;4.00;1.70;;;11.00;44.30;;;;;;5037239;28;20465;-49
2023/12/16 08:48:53;;;;;;;1.25;0.93;;;11.00;44.30;;;;;;5054677;28;20431;-53
2023/12/16 08:51:25;;;;;;;7.38;3.08;;;11.00;44.40;;;;;;5055180;28;20192;-53
2023/12/16 08:53:51;;;;;;;4.35;2.60;;;11.00;44.50;;;;;;5054957;28;20227;-48
2023/12/16 08:56:18;;;;;;;1.90;1.17;;;11.10;44.40;;;;;;5054889;28;20189;-53
2023/12/16 08:58:46;;;;;;;1.55;0.95;;;11.10;44.50;;;;;;5054541;28;20199;-47
2023/12/16 09:01:12;;;;;;;4.93;2.00;;;11.00;44.00;;;;;;5054625;28;20212;-50
2023/12/16 09:03:44;;;;;;;1.40;0.90;;;11.10;43.80;;;;;;5054745;28;20169;-53
2023/12/16 09:06:10;;;;;;;1.38;1.13;;;11.10;44.60;;;;;;5054741;28;20177;-50
2023/12/16 09:08:36;;;;;;;1.20;0.93;;;11.10;44.20;;;;;;5054531;28;20201;-49
2023/12/16 09:11:02;;;;;;;1.10;0.80;;;11.20;44.50;;;;;;5054687;28;20404;-53
2023/12/16 09:13:28;;;;;;;5.25;2.88;;;11.30;44.40;;;;;;5054552;28;20412;-55
2023/12/16 09:15:54;;;;;;;1.00;0.60;;;11.30;44.10;;;;;;5054424;28;20177;-48
2023/12/16 09:18:20;;;;;;;21.92;1.95;;;11.30;43.60;;;;;;5054506;28;20451;-54
2023/12/16 09:20:46;;;;;;;4.78;2.55;;;11.40;43.60;;;;;;5054505;28;20302;-55
2023/12/16 09:23:12;;;;;;;1.38;1.05;;;11.40;43.80;;;;;;5054348;28;20666;-48
2023/12/16 09:25:38;;;;;;;5.07;1.70;;;11.40;44.00;;;;;;5054355;28;20172;-53
2023/12/16 09:28:04;;;;;;;2.83;2.50;;;11.50;43.80;;;;;;5054040;28;20428;-48
2023/12/16 09:30:30;;;;;;;1.37;1.20;;;11.60;43.70;;;;;;5054244;28;20403;-48
2023/12/16 09:32:55;;;;;;;1.53;1.37;;;11.60;43.80;;;;;;5054207;28;20411;-55
2023/12/16 09:35:21;;;;;;;4.73;2.73;;;11.70;43.70;;;;;;5054322;28;20408;-48
2023/12/16 09:37:49;;;;;;;3.63;1.50;;;11.70;43.70;;;;;;5053746;28;20416;-48
2023/12/16 09:40:16;;;;;;;1.80;1.38;;;11.80;43.90;;;;;;5054108;28;20447;-54
2023/12/16 09:42:45;;;;;;;9.52;2.15;;;11.80;43.60;;;;;;5053961;28;20197;-54
2023/12/16 09:45:15;;;;;;;1.05;0.77;;;11.90;43.10;;;;;;5053934;28;20174;-48
2023/12/16 09:47:42;;;;;;;1.73;1.55;;;11.80;43.30;;;;;;5053893;28;20252;-50
2023/12/16 09:50:10;;;;;;;3.33;1.63;;;11.90;43.60;;;;;;5053416;28;20182;-53
2023/12/16 09:52:37;;;;;;;4.65;2.35;;;11.90;42.50;;;;;;5053962;28;20623;-48
2023/12/16 09:55:04;;;;;;;1.50;0.80;;;11.90;41.70;;;;;;5053947;28;20252;-56
2023/12/16 09:57:35;;;;;;;1.10;0.80;;;11.90;43.70;;;;;;5053591;28;20577;-58
2023/12/16 10:00:02;;;;;;;1.58;0.93;;;11.80;42.00;;;;;;5053792;28;20678;-48
2023/12/16 10:02:28;;;;;;;2.22;1.33;;;11.90;43.00;;;;;;5053770;28;20193;-50
2023/12/16 10:04:57;;;;;;;1.67;1.58;;;11.90;42.90;;;;;;5053809;28;20181;-57
2023/12/16 10:07:23;;;;;;;1.65;1.00;;;12.00;43.00;;;;;;5053423;28;20177;-47
2023/12/16 10:09:49;;;;;;;2.17;1.98;;;12.00;42.10;;;;;;5053474;28;20307;-49
2023/12/16 10:12:15;;;;;;;1.85;1.27;;;11.90;41.80;;;;;;5053420;28;20166;-55
2023/12/16 10:14:46;;;;;;;1.33;1.20;;;11.90;42.20;;;;;;5053531;28;20646;-54
2023/12/16 10:17:13;;;;;;;23.38;2.38;;;11.80;41.70;;;;;;5053228;28;20984;-51
2023/12/16 10:19:41;;;;;;;5.40;1.98;;;11.60;41.00;;;;;;5053168;28;20575;-55
2023/12/16 10:22:07;;;;;;;10.43;1.80;;;11.60;42.00;;;;;;5053206;28;20180;-50
2023/12/16 10:24:34;;;;;;;4.57;3.30;;;11.60;42.10;;;;;;5053259;28;20252;-51
2023/12/16 10:27:04;;;;;;;2.33;1.02;;;11.60;41.60;;;;;;5053035;28;20465;-55
2023/12/16 10:29:33;;;;;;;1.23;0.98;;;11.60;41.50;;;;;;5053105;28;20207;-55
2023/12/16 10:31:59;;;;;;;3.30;1.58;;;11.60;41.70;;;;;;5053256;28;20181;-48
2023/12/16 10:34:29;;;;;;;4.80;1.85;;;11.60;41.40;;;;;;5053006;28;20177;-48
2023/12/16 10:37:05;;;;;;;1.00;0.52;;;11.70;41.50;;;;;;5052840;28;20177;-57
2023/12/16 10:39:32;;;;;;;2.10;1.55;;;11.70;41.20;;;;;;5052757;28;20212;-51
2023/12/16 10:41:58;;;;;;;1.40;1.08;;;11.60;41.30;;;;;;5052880;28;20248;-54
2023/12/16 10:44:24;;;;;;;1.95;1.40;;;11.50;41.30;;;;;;5053082;28;20184;-47
2023/12/16 10:46:54;;;;;;;4.50;1.70;;;11.60;41.40;;;;;;5052747;28;20169;-50
2023/12/16 10:49:30;;;;;;;2.15;1.45;;;11.50;41.00;;;;;;5052755;28;20427;-52
2023/12/16 10:52:02;;;;;;;1.63;1.35;;;11.40;41.00;;;;;;5052717;28;20169;-48
2023/12/16 10:54:40;;;;;;;1.65;1.05;;;11.40;41.70;;;;;;5052736;28;20574;-50
2023/12/16 10:57:28;;;;;;;1.13;0.70;;;11.50;41.50;;;;;;5052475;28;20574;-51
2023/12/16 11:00:06;;;;;;;1.55;1.10;;;11.60;41.80;;;;;;5052355;28;20288;-51
2023/12/16 11:02:36;;;;;;;3.80;1.20;;;11.70;41.50;;;;;;5052535;28;20527;-50
2023/12/16 11:05:19;;;;;;;5.90;2.00;;;11.80;41.70;;;;;;5052535;28;20232;-49
2023/12/16 11:07:46;;;;;;;10.45;1.75;;;11.80;40.40;;;;;;5052254;28;20168;-53
2023/12/16 11:10:12;;;;;;;2.28;1.85;;;11.80;40.20;;;;;;5052344;28;20169;-51
2023/12/16 11:12:39;;;;;;;2.88;1.10;;;11.80;40.90;;;;;;5052220;28;20197;-54
2023/12/16 11:15:07;;;;;;;0.90;0.52;;;11.90;40.20;;;;;;5052461;28;20256;-51
2023/12/16 11:17:59;;;;;;;1.10;0.70;;;11.90;40.90;;;;;;5052086;28;20199;-46
2023/12/16 11:20:46;;;;;;;1.65;1.40;;;12.00;40.70;;;;;;5025017;28;20224;-55
2023/12/16 11:23:17;;;;;;;1.58;1.08;;;12.20;39.50;;;;;;5052379;28;20651;-54
2023/12/16 11:25:43;;;;;;;1.35;0.82;;;12.20;39.90;;;;;;5052208;28;20643;-47
2023/12/16 11:28:13;;;;;;;1.30;1.20;;;12.40;40.00;;;;;;5051826;28;20197;-50
2023/12/16 11:30:40;;;;;;;2.88;1.75;;;12.80;40.20;;;;;;5052020;28;20175;-55
2023/12/16 11:33:07;;;;;;;1.20;1.08;;;13.40;39.50;;;;;;5052100;28;20599;-49
2023/12/16 11:35:36;;;;;;;1.60;1.00;;;13.80;37.60;;;;;;5051966;28;20208;-53
2023/12/16 11:38:03;;;;;;;1.35;1.15;;;14.00;36.90;;;;;;5051851;28;20201;-49
2023/12/16 11:40:42;;;;;;;4.60;1.92;;;14.30;36.60;;;;;;5052117;28;20201;-49
2023/12/16 11:43:09;;;;;;;2.05;1.45;;;14.50;35.90;;;;;;5052031;28;20269;-49
2023/12/16 11:45:40;;;;;;;1.63;1.40;;;14.60;34.80;;;;;;5051882;28;20231;-51
2023/12/16 11:48:08;;;;;;;9.55;1.83;;;14.60;34.40;;;;;;5051607;28;20559;-56
2023/12/16 11:50:37;;;;;;;2.17;1.25;;;14.80;34.40;;;;;;5051804;28;20213;-48
2023/12/16 11:53:04;;;;;;;1.80;1.08;;;14.90;33.60;;;;;;5051851;28;20659;-57
2023/12/16 11:55:30;;;;;;;2.45;1.25;;;15.00;34.00;;;;;;5051803;28;20180;-55
2023/12/16 11:57:56;;;;;;;7.13;1.58;;;14.90;33.70;;;;;;5051514;28;20659;-54
2023/12/16 12:00:22;;;;;;;4.38;1.83;;;14.80;33.70;;;;;;5051653;28;20288;-48
2023/12/16 12:02:53;;;;;;;1.80;1.20;;;14.70;34.50;;;;;;5051766;28;20248;-49
2023/12/16 12:05:20;;;;;;;1.65;1.17;;;14.30;33.90;;;;;;5051638;28;20948;-54
2023/12/16 12:07:46;;;;;;;4.75;2.15;;;14.00;34.40;;;;;;5051574;28;20547;-49
2023/12/16 12:10:13;;;;;;;2.33;1.40;;;13.80;35.50;;;;;;5051640;28;20180;-48
2023/12/16 12:12:39;;;;;;;1.52;1.13;;;13.80;35.70;;;;;;5053762;28;20601;-55
2023/12/16 12:15:09;;;;;;;2.60;2.10;;;13.80;36.10;;;;;;5055660;28;20205;-57
2023/12/16 12:17:36;;;;;;;2.83;0.70;;;13.70;35.50;;;;;;5055407;28;20268;-50
2023/12/16 12:20:02;;;;;;;1.30;1.10;;;13.60;35.80;;;;;;5055575;28;20197;-56
2023/12/16 12:22:30;;;;;;;2.10;1.35;;;13.60;35.80;;;;;;5055536;28;20185;-51
2023/12/16 12:24:56;;;;;;;1.70;0.85;;;13.60;35.70;;;;;;5055521;28;20546;-48
2023/12/16 12:27:22;;;;;;;1.90;1.00;;;13.60;36.00;;;;;;5055293;28;20179;-51
2023/12/16 12:29:54;;;;;;;1.45;0.90;;;13.50;35.50;;;;;;5055285;28;20279;-54
2023/12/16 12:32:20;;;;;;;2.72;1.23;;;13.60;35.90;;;;;;5055391;28;20174;-49
2023/12/16 12:34:55;;;;;;;2.63;1.63;;;13.70;35.50;;;;;;5055491;28;20181;-51
2023/12/16 12:37:22;;;;;;;2.40;0.93;;;14.00;35.40;;;;;;5055249;28;20502;-55
2023/12/16 12:39:48;;;;;;;1.30;0.85;;;14.10;34.80;;;;;;5054885;28;20303;-51
2023/12/16 12:42:14;;;;;;;2.78;1.58;;;14.30;33.60;;;;;;5054936;28;20273;-57